Viking — WDB5552 — position and weather

sailwx.info

Track history (hours):
 
Tides and Currents Weather Stations Pressure Air Temp Water Temp Dewpoint Dewpoint Depression Visibility Wind Speed Wind Dir Waves Ship Positions

Viking

Owner: Kirby Offshore Marine, LLC, Staten Island, NY. More information available from US FCC via Universal Licensing System and Coast Guard Vessel Documentation Center.

Last reported at 2018-Jun-22 02:22 UTC. Time now 2018-Jun-22 13:24 UTC.
Position N 40°47' W 074°00'.

Type: Tug. MMSI: 366359910.

Date/timePositionNaut miles runAvg speedWind from/ knotsBaromVisibWave heightAir tempDewpointWater temp
2018-Jun-22 02:22N 40°47' W 074°00'2 5.2
2018-Jun-22 02:00N 40°45' W 074°01'3 5.8
2018-Jun-22 01:30N 40°42' W 074°02'3 5.7
2018-Jun-22 01:00N 40°39' W 074°03'4 7.4
2018-Jun-22 00:30N 40°39' W 074°08'3 0.1
2018-Jun-20 16:39N 40°38' W 074°11'2 7.2
2018-Jun-20 16:23N 40°39' W 074°09'3 9.3
2018-Jun-20 16:01N 40°39' W 074°04'1 2.8
2018-Jun-20 15:31N 40°39' W 074°03'3 5.7
2018-Jun-20 15:00N 40°39' W 074°06'3 3.8
2018-Jun-20 14:18N 40°39' W 074°10'0 0.0
2018-Jun-20 13:57N 40°39' W 074°10'4 8.0
2018-Jun-20 13:29N 40°39' W 074°05'2 3.7
2018-Jun-20 13:01N 40°39' W 074°03'0 0.0
2018-Jun-20 12:30N 40°39' W 074°03'0 0.0
2018-Jun-20 12:01N 40°39' W 074°03'0 0.0
2018-Jun-20 11:31N 40°39' W 074°03'0 0.0
2018-Jun-20 11:01N 40°39' W 074°03'0 0.0
2018-Jun-20 10:31N 40°39' W 074°03'0 0.0
2018-Jun-20 10:01N 40°39' W 074°03'0 0.0
2018-Jun-20 09:30N 40°39' W 074°03'0 0.1
2018-Jun-20 09:01N 40°39' W 074°03'0 0.2
2018-Jun-20 08:31N 40°39' W 074°03'0 0.1
2018-Jun-20 08:00N 40°39' W 074°03'0 0.0
2018-Jun-20 07:30N 40°39' W 074°03'0 0.0
2018-Jun-20 07:01N 40°39' W 074°03'0 0.0
2018-Jun-20 06:31N 40°39' W 074°03'0 0.1
2018-Jun-20 06:01N 40°39' W 074°03'1 1.7
2018-Jun-20 05:30N 40°40' W 074°03'4 8.1
2018-Jun-20 05:01N 40°44' W 074°01'  
2018-Jun-17 17:49N 40°45' W 074°01'3 8.4
2018-Jun-17 17:30N 40°42' W 074°02'4 7.3
2018-Jun-17 17:00N 40°39' W 074°05'1 0.0
2018-Jun-16 15:54N 40°38' W 074°04'2 4.0
2018-Jun-16 15:30N 40°39' W 074°05'0 0.1
2018-Jun-16 14:57N 40°39' W 074°05'0 0.0
2018-Jun-15 17:33N 40°39' W 074°05'0 6.7
2018-Jun-15 17:30N 40°39' W 074°05'0 0.0
2018-Jun-15 09:04N 40°39' W 074°05'0 0.1
2018-Jun-15 08:58N 40°39' W 074°05'0 0.0
2018-Jun-15 08:30N 40°39' W 074°05'2 4.2
2018-Jun-15 08:00N 40°40' W 074°03'611.4
2018-Jun-15 07:30N 40°46' W 074°01'1 1.5
2018-Jun-15 06:36N 40°47' W 073°60'  
2018-Jun-12 19:34N 40°45' W 074°01'0 0.1
2018-Jun-12 19:18N 40°45' W 074°01'2 5.4
2018-Jun-12 19:00N 40°43' W 074°01'3 5.4
2018-Jun-12 18:30N 40°41' W 074°02'3 5.3
2018-Jun-12 18:00N 40°39' W 074°05'1 2.0
2018-Jun-12 17:30N 40°39' W 074°07'0 0.0
2018-Jun-12 17:00N 40°39' W 074°07'0 0.0
2018-Jun-12 16:30N 40°39' W 074°07'0 0.0
2018-Jun-12 16:00N 40°39' W 074°07'0 0.0
2018-Jun-12 15:30N 40°39' W 074°07'0 0.0
2018-Jun-12 15:00N 40°39' W 074°07'0 0.0
2018-Jun-12 14:30N 40°39' W 074°07'0 0.0
2018-Jun-12 14:00N 40°39' W 074°07'0 0.0
2018-Jun-12 13:30N 40°39' W 074°07'0 0.0
2018-Jun-12 13:00N 40°39' W 074°07'0 0.0
2018-Jun-12 12:30N 40°39' W 074°07'0 0.0
2018-Jun-12 12:00N 40°39' W 074°07'0 0.0
2018-Jun-12 11:29N 40°39' W 074°07'0 0.0
2018-Jun-12 07:23N 40°39' W 074°07'0 0.0
2018-Jun-12 05:44N 40°39' W 074°07'0 0.0
2018-Jun-12 05:27N 40°39' W 074°07'0 0.0
2018-Jun-12 04:44N 40°39' W 074°07'0 0.0
2018-Jun-12 04:20N 40°39' W 074°07'0 0.0
2018-Jun-12 03:23N 40°39' W 074°07'0 0.0
2018-Jun-12 02:50N 40°39' W 074°07'  
Track history (hours):
 
Tides and Currents Weather Stations Pressure Air Temp Water Temp Dewpoint Dewpoint Depression Visibility Wind Speed Wind Dir Waves Ship Positions

Viking

Owner: Kirby Offshore Marine, LLC, Staten Island, NY. More information available from US FCC via Universal Licensing System and Coast Guard Vessel Documentation Center.

Last reported at 2018-Jun-22 02:22 UTC. Time now 2018-Jun-22 13:24 UTC.
Position N 40°47' W 074°00'.

Type: Tug. MMSI: 366359910.

Date/timePositionNaut miles runAvg speedWind from/ knotsBaromVisibWave heightAir tempDewpointWater temp
2018-Jun-22 02:22N 40°47' W 074°00'2 5.2
2018-Jun-22 02:00N 40°45' W 074°01'3 5.8
2018-Jun-22 01:30N 40°42' W 074°02'3 5.7
2018-Jun-22 01:00N 40°39' W 074°03'4 7.4
2018-Jun-22 00:30N 40°39' W 074°08'3 0.1
2018-Jun-20 16:39N 40°38' W 074°11'2 7.2
2018-Jun-20 16:23N 40°39' W 074°09'3 9.3
2018-Jun-20 16:01N 40°39' W 074°04'1 2.8
2018-Jun-20 15:31N 40°39' W 074°03'3 5.7
2018-Jun-20 15:00N 40°39' W 074°06'3 3.8
2018-Jun-20 14:18N 40°39' W 074°10'0 0.0
2018-Jun-20 13:57N 40°39' W 074°10'4 8.0
2018-Jun-20 13:29N 40°39' W 074°05'2 3.7
2018-Jun-20 13:01N 40°39' W 074°03'0 0.0
2018-Jun-20 12:30N 40°39' W 074°03'0 0.0
2018-Jun-20 12:01N 40°39' W 074°03'0 0.0
2018-Jun-20 11:31N 40°39' W 074°03'0 0.0
2018-Jun-20 11:01N 40°39' W 074°03'0 0.0
2018-Jun-20 10:31N 40°39' W 074°03'0 0.0
2018-Jun-20 10:01N 40°39' W 074°03'0 0.0
2018-Jun-20 09:30N 40°39' W 074°03'0 0.1
2018-Jun-20 09:01N 40°39' W 074°03'0 0.2
2018-Jun-20 08:31N 40°39' W 074°03'0 0.1
2018-Jun-20 08:00N 40°39' W 074°03'0 0.0
2018-Jun-20 07:30N 40°39' W 074°03'0 0.0
2018-Jun-20 07:01N 40°39' W 074°03'0 0.0
2018-Jun-20 06:31N 40°39' W 074°03'0 0.1
2018-Jun-20 06:01N 40°39' W 074°03'1 1.7
2018-Jun-20 05:30N 40°40' W 074°03'4 8.1
2018-Jun-20 05:01N 40°44' W 074°01'  
2018-Jun-17 17:49N 40°45' W 074°01'3 8.4
2018-Jun-17 17:30N 40°42' W 074°02'4 7.3
2018-Jun-17 17:00N 40°39' W 074°05'1 0.0
2018-Jun-16 15:54N 40°38' W 074°04'2 4.0
2018-Jun-16 15:30N 40°39' W 074°05'0 0.1
2018-Jun-16 14:57N 40°39' W 074°05'0 0.0
2018-Jun-15 17:33N 40°39' W 074°05'0 6.7
2018-Jun-15 17:30N 40°39' W 074°05'0 0.0
2018-Jun-15 09:04N 40°39' W 074°05'0 0.1
2018-Jun-15 08:58N 40°39' W 074°05'0 0.0
2018-Jun-15 08:30N 40°39' W 074°05'2 4.2
2018-Jun-15 08:00N 40°40' W 074°03'611.4
2018-Jun-15 07:30N 40°46' W 074°01'1 1.5
2018-Jun-15 06:36N 40°47' W 073°60'  
2018-Jun-12 19:34N 40°45' W 074°01'0 0.1
2018-Jun-12 19:18N 40°45' W 074°01'2 5.4
2018-Jun-12 19:00N 40°43' W 074°01'3 5.4
2018-Jun-12 18:30N 40°41' W 074°02'3 5.3
2018-Jun-12 18:00N 40°39' W 074°05'1 2.0
2018-Jun-12 17:30N 40°39' W 074°07'0 0.0
2018-Jun-12 17:00N 40°39' W 074°07'0 0.0
2018-Jun-12 16:30N 40°39' W 074°07'0 0.0
2018-Jun-12 16:00N 40°39' W 074°07'0 0.0
2018-Jun-12 15:30N 40°39' W 074°07'0 0.0
2018-Jun-12 15:00N 40°39' W 074°07'0 0.0
2018-Jun-12 14:30N 40°39' W 074°07'0 0.0
2018-Jun-12 14:00N 40°39' W 074°07'0 0.0
2018-Jun-12 13:30N 40°39' W 074°07'0 0.0
2018-Jun-12 13:00N 40°39' W 074°07'0 0.0
2018-Jun-12 12:30N 40°39' W 074°07'0 0.0
2018-Jun-12 12:00N 40°39' W 074°07'0 0.0
2018-Jun-12 11:29N 40°39' W 074°07'0 0.0
2018-Jun-12 07:23N 40°39' W 074°07'0 0.0
2018-Jun-12 05:44N 40°39' W 074°07'0 0.0
2018-Jun-12 05:27N 40°39' W 074°07'0 0.0
2018-Jun-12 04:44N 40°39' W 074°07'0 0.0
2018-Jun-12 04:20N 40°39' W 074°07'0 0.0
2018-Jun-12 03:23N 40°39' W 074°07'0 0.0
2018-Jun-12 02:50N 40°39' W 074°07'  

Dump ship's entire track history